sensor_id;sensor_type;location;lat;lon;timestamp;temperature;humidity
54260;DHT22;40172;53.022;7.012;2022-10-24T00:00:45;14.30;99.90
54260;DHT22;40172;53.022;7.012;2022-10-24T00:03:11;14.20;99.90
54260;DHT22;40172;53.022;7.012;2022-10-24T00:05:41;14.30;99.90
54260;DHT22;40172;53.022;7.012;2022-10-24T00:08:07;14.30;99.90
54260;DHT22;40172;53.022;7.012;2022-10-24T00:10:33;14.30;99.90
54260;DHT22;40172;53.022;7.012;2022-10-24T00:13:00;14.30;99.90
54260;DHT22;40172;53.022;7.012;2022-10-24T00:15:26;14.10;99.90
54260;DHT22;40172;53.022;7.012;2022-10-24T00:17:51;14.20;99.90
54260;DHT22;40172;53.022;7.012;2022-10-24T00:20:17;14.30;99.90
54260;DHT22;40172;53.022;7.012;2022-10-24T00:22:43;14.20;99.90
54260;DHT22;40172;53.022;7.012;2022-10-24T00:25:09;14.20;99.90
54260;DHT22;40172;53.022;7.012;2022-10-24T00:27:34;14.20;99.90
54260;DHT22;40172;53.022;7.012;2022-10-24T00:30:01;14.10;99.90
54260;DHT22;40172;53.022;7.012;2022-10-24T00:32:27;14.20;99.90
54260;DHT22;40172;53.022;7.012;2022-10-24T00:34:52;14.10;99.90
54260;DHT22;40172;53.022;7.012;2022-10-24T00:37:18;14.10;99.90
54260;DHT22;40172;53.022;7.012;2022-10-24T00:39:43;14.10;99.90
54260;DHT22;40172;53.022;7.012;2022-10-24T00:42:10;14.10;99.90
54260;DHT22;40172;53.022;7.012;2022-10-24T00:44:38;14.00;99.90
54260;DHT22;40172;53.022;7.012;2022-10-24T00:47:09;14.00;99.90
54260;DHT22;40172;53.022;7.012;2022-10-24T00:49:47;14.00;99.90
54260;DHT22;40172;53.022;7.012;2022-10-24T00:52:17;14.00;99.90
54260;DHT22;40172;53.022;7.012;2022-10-24T00:54:45;14.10;99.90
54260;DHT22;40172;53.022;7.012;2022-10-24T00:57:18;14.00;99.90
54260;DHT22;40172;53.022;7.012;2022-10-24T00:59:47;14.00;99.90
54260;DHT22;40172;53.022;7.012;2022-10-24T01:02:14;13.90;99.90
54260;DHT22;40172;53.022;7.012;2022-10-24T01:04:40;13.90;99.90
54260;DHT22;40172;53.022;7.012;2022-10-24T01:12:58;14.00;99.90
54260;DHT22;40172;53.022;7.012;2022-10-24T01:18:22;15.60;99.90
54260;DHT22;40172;53.022;7.012;2022-10-24T01:21:13;14.20;99.90
54260;DHT22;40172;53.022;7.012;2022-10-24T01:32:10;14.30;99.90
54260;DHT22;40172;53.022;7.012;2022-10-24T01:37:26;14.30;99.90
54260;DHT22;40172;53.022;7.012;2022-10-24T01:39:59;14.30;99.90
54260;DHT22;40172;53.022;7.012;2022-10-24T01:42:29;14.30;99.90
54260;DHT22;40172;53.022;7.012;2022-10-24T01:44:56;14.40;99.90
54260;DHT22;40172;53.022;7.012;2022-10-24T01:47:31;14.30;99.90
54260;DHT22;40172;53.022;7.012;2022-10-24T01:50:02;14.50;99.90
54260;DHT22;40172;53.022;7.012;2022-10-24T01:52:32;14.50;99.90
54260;DHT22;40172;53.022;7.012;2022-10-24T01:54:59;14.60;99.90
54260;DHT22;40172;53.022;7.012;2022-10-24T01:57:27;14.60;99.90
54260;DHT22;40172;53.022;7.012;2022-10-24T01:59:53;14.60;99.90
54260;DHT22;40172;53.022;7.012;2022-10-24T02:04:55;14.60;99.90
54260;DHT22;40172;53.022;7.012;2022-10-24T02:07:22;14.70;99.90
54260;DHT22;40172;53.022;7.012;2022-10-24T02:09:53;14.80;99.90
54260;DHT22;40172;53.022;7.012;2022-10-24T02:12:23;14.60;99.90
54260;DHT22;40172;53.022;7.012;2022-10-24T02:14:54;14.70;99.90
54260;DHT22;40172;53.022;7.012;2022-10-24T02:17:20;14.70;99.90
54260;DHT22;40172;53.022;7.012;2022-10-24T02:19:47;14.60;99.90
54260;DHT22;40172;53.022;7.012;2022-10-24T02:25:08;14.80;99.90
54260;DHT22;40172;53.022;7.012;2022-10-24T02:27:59;14.70;99.90
54260;DHT22;40172;53.022;7.012;2022-10-24T02:30:28;14.80;99.90
54260;DHT22;40172;53.022;7.012;2022-10-24T02:32:57;14.80;99.90
54260;DHT22;40172;53.022;7.012;2022-10-24T02:35:29;14.80;99.90
54260;DHT22;40172;53.022;7.012;2022-10-24T02:38:21;14.80;99.90
54260;DHT22;40172;53.022;7.012;2022-10-24T02:40:49;14.80;99.90
54260;DHT22;40172;53.022;7.012;2022-10-24T02:43:17;14.90;99.90
54260;DHT22;40172;53.022;7.012;2022-10-24T02:45:44;14.80;99.90
54260;DHT22;40172;53.022;7.012;2022-10-24T02:48:14;14.80;99.90
54260;DHT22;40172;53.022;7.012;2022-10-24T02:50:41;14.80;99.90
54260;DHT22;40172;53.022;7.012;2022-10-24T02:53:11;14.80;99.90
54260;DHT22;40172;53.022;7.012;2022-10-24T02:55:37;14.60;99.90
54260;DHT22;40172;53.022;7.012;2022-10-24T02:58:03;14.70;99.90
54260;DHT22;40172;53.022;7.012;2022-10-24T03:00:29;14.70;99.90
54260;DHT22;40172;53.022;7.012;2022-10-24T03:02:54;14.90;99.90
54260;DHT22;40172;53.022;7.012;2022-10-24T03:05:20;14.50;99.90
54260;DHT22;40172;53.022;7.012;2022-10-24T03:07:45;15.50;99.90
54260;DHT22;40172;53.022;7.012;2022-10-24T03:10:11;14.50;99.90
54260;DHT22;40172;53.022;7.012;2022-10-24T03:12:36;14.40;99.90
54260;DHT22;40172;53.022;7.012;2022-10-24T03:15:03;14.40;99.90
54260;DHT22;40172;53.022;7.012;2022-10-24T03:17:29;14.40;99.90
54260;DHT22;40172;53.022;7.012;2022-10-24T03:19:54;14.20;99.90
54260;DHT22;40172;53.022;7.012;2022-10-24T03:22:20;14.00;99.90
54260;DHT22;40172;53.022;7.012;2022-10-24T03:24:45;14.20;99.90
54260;DHT22;40172;53.022;7.012;2022-10-24T03:27:11;13.90;99.90
54260;DHT22;40172;53.022;7.012;2022-10-24T03:29:37;14.20;99.90
54260;DHT22;40172;53.022;7.012;2022-10-24T03:32:02;14.20;99.90
54260;DHT22;40172;53.022;7.012;2022-10-24T03:34:28;14.30;99.90
54260;DHT22;40172;53.022;7.012;2022-10-24T03:36:53;14.30;99.90
54260;DHT22;40172;53.022;7.012;2022-10-24T03:39:19;14.30;99.90
54260;DHT22;40172;53.022;7.012;2022-10-24T03:41:45;14.30;99.90
54260;DHT22;40172;53.022;7.012;2022-10-24T03:44:10;14.20;99.90
54260;DHT22;40172;53.022;7.012;2022-10-24T03:46:36;14.30;99.90
54260;DHT22;40172;53.022;7.012;2022-10-24T03:49:01;15.60;99.90
54260;DHT22;40172;53.022;7.012;2022-10-24T03:51:30;14.20;99.90
54260;DHT22;40172;53.022;7.012;2022-10-24T03:53:55;14.30;99.90
54260;DHT22;40172;53.022;7.012;2022-10-24T03:56:21;14.30;99.90
54260;DHT22;40172;53.022;7.012;2022-10-24T03:58:46;14.30;99.90
54260;DHT22;40172;53.022;7.012;2022-10-24T04:01:12;14.40;99.90
54260;DHT22;40172;53.022;7.012;2022-10-24T04:03:45;14.40;99.90
54260;DHT22;40172;53.022;7.012;2022-10-24T04:06:12;14.50;99.90
54260;DHT22;40172;53.022;7.012;2022-10-24T04:08:38;14.60;99.90
54260;DHT22;40172;53.022;7.012;2022-10-24T04:11:04;14.50;99.90
54260;DHT22;40172;53.022;7.012;2022-10-24T04:13:31;13.40;99.90
54260;DHT22;40172;53.022;7.012;2022-10-24T04:15:57;14.50;99.90
54260;DHT22;40172;53.022;7.012;2022-10-24T04:18:22;14.60;99.90
54260;DHT22;40172;53.022;7.012;2022-10-24T04:20:48;14.40;99.90
54260;DHT22;40172;53.022;7.012;2022-10-24T04:23:14;14.50;99.90
54260;DHT22;40172;53.022;7.012;2022-10-24T04:25:40;14.50;99.90
54260;DHT22;40172;53.022;7.012;2022-10-24T04:28:06;14.50;99.90
54260;DHT22;40172;53.022;7.012;2022-10-24T04:30:31;14.50;99.90
54260;DHT22;40172;53.022;7.012;2022-10-24T04:32:57;14.50;99.90
54260;DHT22;40172;53.022;7.012;2022-10-24T04:35:23;14.40;99.90
54260;DHT22;40172;53.022;7.012;2022-10-24T04:37:50;14.40;99.90
54260;DHT22;40172;53.022;7.012;2022-10-24T04:40:15;14.40;99.90
54260;DHT22;40172;53.022;7.012;2022-10-24T04:42:41;14.30;99.90
54260;DHT22;40172;53.022;7.012;2022-10-24T04:45:07;14.30;99.90
54260;DHT22;40172;53.022;7.012;2022-10-24T04:47:33;14.30;99.90
54260;DHT22;40172;53.022;7.012;2022-10-24T04:49:58;14.30;99.90
54260;DHT22;40172;53.022;7.012;2022-10-24T04:52:24;14.30;99.90
54260;DHT22;40172;53.022;7.012;2022-10-24T04:54:49;14.30;99.90
54260;DHT22;40172;53.022;7.012;2022-10-24T04:57:15;14.20;99.90
54260;DHT22;40172;53.022;7.012;2022-10-24T04:59:41;14.30;99.90
54260;DHT22;40172;53.022;7.012;2022-10-24T05:02:06;14.10;99.90
54260;DHT22;40172;53.022;7.012;2022-10-24T05:04:32;14.30;99.90
54260;DHT22;40172;53.022;7.012;2022-10-24T05:06:58;14.30;99.90
54260;DHT22;40172;53.022;7.012;2022-10-24T05:09:23;14.40;99.90
54260;DHT22;40172;53.022;7.012;2022-10-24T05:11:49;14.50;99.90
54260;DHT22;40172;53.022;7.012;2022-10-24T05:14:14;14.50;99.90
54260;DHT22;40172;53.022;7.012;2022-10-24T05:16:40;14.50;99.90
54260;DHT22;40172;53.022;7.012;2022-10-24T05:19:05;14.50;99.90
54260;DHT22;40172;53.022;7.012;2022-10-24T05:21:31;14.40;99.90
54260;DHT22;40172;53.022;7.012;2022-10-24T05:23:58;14.50;99.90
54260;DHT22;40172;53.022;7.012;2022-10-24T05:26:24;14.40;99.90
54260;DHT22;40172;53.022;7.012;2022-10-24T05:28:49;14.20;99.90
54260;DHT22;40172;53.022;7.012;2022-10-24T05:31:15;14.30;99.90
54260;DHT22;40172;53.022;7.012;2022-10-24T05:33:41;14.40;99.90
54260;DHT22;40172;53.022;7.012;2022-10-24T05:36:07;15.40;99.90
54260;DHT22;40172;53.022;7.012;2022-10-24T05:38:32;14.30;99.90
54260;DHT22;40172;53.022;7.012;2022-10-24T05:40:58;14.30;99.90
54260;DHT22;40172;53.022;7.012;2022-10-24T05:43:24;14.40;99.90
54260;DHT22;40172;53.022;7.012;2022-10-24T05:45:49;14.40;99.90
54260;DHT22;40172;53.022;7.012;2022-10-24T05:48:15;14.30;99.90
54260;DHT22;40172;53.022;7.012;2022-10-24T05:50:41;14.30;99.90
54260;DHT22;40172;53.022;7.012;2022-10-24T05:53:07;14.30;99.90
54260;DHT22;40172;53.022;7.012;2022-10-24T05:55:33;14.20;99.90
54260;DHT22;40172;53.022;7.012;2022-10-24T05:57:59;14.10;99.90
54260;DHT22;40172;53.022;7.012;2022-10-24T06:00:25;14.10;99.90
54260;DHT22;40172;53.022;7.012;2022-10-24T06:02:50;14.10;99.90
54260;DHT22;40172;53.022;7.012;2022-10-24T06:05:16;14.00;99.90
54260;DHT22;40172;53.022;7.012;2022-10-24T06:07:42;13.90;99.90
54260;DHT22;40172;53.022;7.012;2022-10-24T06:10:09;13.90;99.90
54260;DHT22;40172;53.022;7.012;2022-10-24T06:12:35;13.90;99.90
54260;DHT22;40172;53.022;7.012;2022-10-24T06:15:01;13.90;99.90
54260;DHT22;40172;53.022;7.012;2022-10-24T06:17:27;14.00;99.90
54260;DHT22;40172;53.022;7.012;2022-10-24T06:19:52;14.00;99.90
54260;DHT22;40172;53.022;7.012;2022-10-24T06:22:19;14.10;99.90
54260;DHT22;40172;53.022;7.012;2022-10-24T06:24:48;14.10;99.90
54260;DHT22;40172;53.022;7.012;2022-10-24T06:27:13;14.20;99.90
54260;DHT22;40172;53.022;7.012;2022-10-24T06:29:40;14.20;99.90
54260;DHT22;40172;53.022;7.012;2022-10-24T06:32:05;14.20;99.90
54260;DHT22;40172;53.022;7.012;2022-10-24T06:34:31;14.20;99.90
54260;DHT22;40172;53.022;7.012;2022-10-24T06:36:57;14.20;99.90
54260;DHT22;40172;53.022;7.012;2022-10-24T06:39:22;14.20;99.90
54260;DHT22;40172;53.022;7.012;2022-10-24T06:41:48;14.20;99.90
54260;DHT22;40172;53.022;7.012;2022-10-24T06:44:14;14.30;99.90
54260;DHT22;40172;53.022;7.012;2022-10-24T06:46:39;14.30;99.90
54260;DHT22;40172;53.022;7.012;2022-10-24T06:49:05;14.30;99.90
54260;DHT22;40172;53.022;7.012;2022-10-24T06:51:31;14.30;99.90
54260;DHT22;40172;53.022;7.012;2022-10-24T06:53:58;14.30;99.90
54260;DHT22;40172;53.022;7.012;2022-10-24T06:56:23;14.40;99.90
54260;DHT22;40172;53.022;7.012;2022-10-24T06:58:49;14.40;99.90
54260;DHT22;40172;53.022;7.012;2022-10-24T07:01:18;14.50;99.90
54260;DHT22;40172;53.022;7.012;2022-10-24T07:03:45;14.40;99.90
54260;DHT22;40172;53.022;7.012;2022-10-24T07:06:16;14.60;99.90
54260;DHT22;40172;53.022;7.012;2022-10-24T07:08:42;14.60;99.90
54260;DHT22;40172;53.022;7.012;2022-10-24T07:11:08;14.70;99.90
54260;DHT22;40172;53.022;7.012;2022-10-24T07:13:33;14.70;99.90
54260;DHT22;40172;53.022;7.012;2022-10-24T07:15:59;14.70;99.90
54260;DHT22;40172;53.022;7.012;2022-10-24T07:18:25;14.70;99.90
54260;DHT22;40172;53.022;7.012;2022-10-24T07:20:50;14.80;99.90
54260;DHT22;40172;53.022;7.012;2022-10-24T07:23:16;14.80;99.90
54260;DHT22;40172;53.022;7.012;2022-10-24T07:25:42;14.80;99.90
54260;DHT22;40172;53.022;7.012;2022-10-24T07:28:08;14.80;99.90
54260;DHT22;40172;53.022;7.012;2022-10-24T07:30:36;16.40;99.90
54260;DHT22;40172;53.022;7.012;2022-10-24T07:33:02;15.00;99.90
54260;DHT22;40172;53.022;7.012;2022-10-24T07:35:28;15.20;99.90
54260;DHT22;40172;53.022;7.012;2022-10-24T07:37:55;15.20;99.90
54260;DHT22;40172;53.022;7.012;2022-10-24T07:40:20;15.30;99.90
54260;DHT22;40172;53.022;7.012;2022-10-24T07:42:46;15.40;99.90
54260;DHT22;40172;53.022;7.012;2022-10-24T07:45:13;15.50;99.90
54260;DHT22;40172;53.022;7.012;2022-10-24T07:47:38;15.50;99.90
54260;DHT22;40172;53.022;7.012;2022-10-24T07:50:05;15.60;99.90
54260;DHT22;40172;53.022;7.012;2022-10-24T07:52:31;15.60;99.90
54260;DHT22;40172;53.022;7.012;2022-10-24T07:54:56;15.60;99.90
54260;DHT22;40172;53.022;7.012;2022-10-24T07:57:22;15.60;99.90
54260;DHT22;40172;53.022;7.012;2022-10-24T07:59:48;15.60;99.90
54260;DHT22;40172;53.022;7.012;2022-10-24T08:02:14;15.60;99.90
54260;DHT22;40172;53.022;7.012;2022-10-24T08:04:40;15.60;99.90
54260;DHT22;40172;53.022;7.012;2022-10-24T08:07:06;15.50;99.90
54260;DHT22;40172;53.022;7.012;2022-10-24T08:09:38;15.50;99.90
54260;DHT22;40172;53.022;7.012;2022-10-24T08:12:04;15.60;99.90
54260;DHT22;40172;53.022;7.012;2022-10-24T08:14:29;15.60;99.90
54260;DHT22;40172;53.022;7.012;2022-10-24T08:16:55;15.60;99.90
54260;DHT22;40172;53.022;7.012;2022-10-24T08:19:21;15.60;99.90
54260;DHT22;40172;53.022;7.012;2022-10-24T08:21:46;15.60;99.90
54260;DHT22;40172;53.022;7.012;2022-10-24T08:24:12;15.70;99.90
54260;DHT22;40172;53.022;7.012;2022-10-24T08:26:37;15.80;99.90
54260;DHT22;40172;53.022;7.012;2022-10-24T08:29:05;15.80;99.90
54260;DHT22;40172;53.022;7.012;2022-10-24T08:31:36;15.90;99.90
54260;DHT22;40172;53.022;7.012;2022-10-24T08:34:03;15.90;99.90
54260;DHT22;40172;53.022;7.012;2022-10-24T08:36:32;15.80;99.90
54260;DHT22;40172;53.022;7.012;2022-10-24T08:38:59;15.90;99.90
54260;DHT22;40172;53.022;7.012;2022-10-24T08:44:05;16.00;99.90
54260;DHT22;40172;53.022;7.012;2022-10-24T08:46:49;16.10;99.90
54260;DHT22;40172;53.022;7.012;2022-10-24T08:49:42;16.10;99.90
54260;DHT22;40172;53.022;7.012;2022-10-24T08:52:27;16.20;99.90
54260;DHT22;40172;53.022;7.012;2022-10-24T08:54:56;16.30;99.90
54260;DHT22;40172;53.022;7.012;2022-10-24T08:57:27;16.30;99.90
54260;DHT22;40172;53.022;7.012;2022-10-24T08:59:57;16.40;99.90
54260;DHT22;40172;53.022;7.012;2022-10-24T09:02:25;16.40;99.90
54260;DHT22;40172;53.022;7.012;2022-10-24T09:04:59;16.50;99.90
54260;DHT22;40172;53.022;7.012;2022-10-24T09:07:26;16.50;99.90
54260;DHT22;40172;53.022;7.012;2022-10-24T09:10:02;16.70;99.90
54260;DHT22;40172;53.022;7.012;2022-10-24T09:12:29;16.60;99.90
54260;DHT22;40172;53.022;7.012;2022-10-24T09:14:58;16.60;99.90
54260;DHT22;40172;53.022;7.012;2022-10-24T09:17:34;16.70;99.90
54260;DHT22;40172;53.022;7.012;2022-10-24T09:20:24;16.80;99.90
54260;DHT22;40172;53.022;7.012;2022-10-24T09:22:52;16.80;99.90
54260;DHT22;40172;53.022;7.012;2022-10-24T09:25:21;16.20;99.90
54260;DHT22;40172;53.022;7.012;2022-10-24T09:27:48;17.60;99.90
54260;DHT22;40172;53.022;7.012;2022-10-24T09:30:21;17.00;99.90
54260;DHT22;40172;53.022;7.012;2022-10-24T09:32:49;18.10;99.90
54260;DHT22;40172;53.022;7.012;2022-10-24T09:35:19;16.90;99.90
54260;DHT22;40172;53.022;7.012;2022-10-24T09:37:50;18.10;99.90
54260;DHT22;40172;53.022;7.012;2022-10-24T09:40:25;16.90;99.90
54260;DHT22;40172;53.022;7.012;2022-10-24T09:43:14;16.90;99.90
54260;DHT22;40172;53.022;7.012;2022-10-24T09:45:43;16.90;99.90
54260;DHT22;40172;53.022;7.012;2022-10-24T09:50:42;16.70;99.90
54260;DHT22;40172;53.022;7.012;2022-10-24T09:53:21;16.70;99.90
54260;DHT22;40172;53.022;7.012;2022-10-24T09:55:51;16.60;99.90
54260;DHT22;40172;53.022;7.012;2022-10-24T09:58:20;16.60;99.90
54260;DHT22;40172;53.022;7.012;2022-10-24T10:03:33;16.70;99.90
54260;DHT22;40172;53.022;7.012;2022-10-24T10:06:14;16.70;99.90
54260;DHT22;40172;53.022;7.012;2022-10-24T10:08:40;16.70;99.90
54260;DHT22;40172;53.022;7.012;2022-10-24T10:11:07;16.80;99.90
54260;DHT22;40172;53.022;7.012;2022-10-24T10:13:45;16.80;99.90
54260;DHT22;40172;53.022;7.012;2022-10-24T10:16:22;16.90;99.90
54260;DHT22;40172;53.022;7.012;2022-10-24T10:18:48;17.10;99.90
54260;DHT22;40172;53.022;7.012;2022-10-24T10:21:21;17.00;99.90
54260;DHT22;40172;53.022;7.012;2022-10-24T10:23:55;17.20;99.90
54260;DHT22;40172;53.022;7.012;2022-10-24T10:26:48;17.20;99.90
54260;DHT22;40172;53.022;7.012;2022-10-24T10:29:23;17.20;99.90
54260;DHT22;40172;53.022;7.012;2022-10-24T10:31:56;17.60;99.90
54260;DHT22;40172;53.022;7.012;2022-10-24T10:34:27;17.10;99.90
54260;DHT22;40172;53.022;7.012;2022-10-24T10:51:02;17.40;99.90
54260;DHT22;40172;53.022;7.012;2022-10-24T11:11:38;17.30;99.90
54260;DHT22;40172;53.022;7.012;2022-10-24T11:14:34;17.40;99.90
54260;DHT22;40172;53.022;7.012;2022-10-24T11:22:37;17.30;99.90
54260;DHT22;40172;53.022;7.012;2022-10-24T11:31:12;17.30;99.90
54260;DHT22;40172;53.022;7.012;2022-10-24T11:36:31;17.20;99.90
54260;DHT22;40172;53.022;7.012;2022-10-24T11:41:55;17.10;99.90
54260;DHT22;40172;53.022;7.012;2022-10-24T11:44:35;17.20;99.90
54260;DHT22;40172;53.022;7.012;2022-10-24T11:49:45;17.30;99.90
54260;DHT22;40172;53.022;7.012;2022-10-24T11:52:15;17.30;99.90
54260;DHT22;40172;53.022;7.012;2022-10-24T11:54:57;17.30;99.90
54260;DHT22;40172;53.022;7.012;2022-10-24T11:57:28;17.20;99.90
54260;DHT22;40172;53.022;7.012;2022-10-24T11:59:55;17.20;99.90
54260;DHT22;40172;53.022;7.012;2022-10-24T12:05:31;17.30;99.90
54260;DHT22;40172;53.022;7.012;2022-10-24T12:11:23;17.30;99.90
54260;DHT22;40172;53.022;7.012;2022-10-24T12:16:52;17.40;99.90
54260;DHT22;40172;53.022;7.012;2022-10-24T12:19:24;17.50;99.90
54260;DHT22;40172;53.022;7.012;2022-10-24T12:21:51;18.50;99.90
54260;DHT22;40172;53.022;7.012;2022-10-24T12:24:28;17.50;99.90
54260;DHT22;40172;53.022;7.012;2022-10-24T12:27:00;17.40;99.90
54260;DHT22;40172;53.022;7.012;2022-10-24T12:29:32;17.30;99.90
54260;DHT22;40172;53.022;7.012;2022-10-24T12:32:00;17.20;99.90
54260;DHT22;40172;53.022;7.012;2022-10-24T12:34:55;17.00;99.90
54260;DHT22;40172;53.022;7.012;2022-10-24T12:39:51;16.90;99.90
54260;DHT22;40172;53.022;7.012;2022-10-24T12:44:50;16.70;99.90
54260;DHT22;40172;53.022;7.012;2022-10-24T12:47:35;16.70;99.90
54260;DHT22;40172;53.022;7.012;2022-10-24T12:57:57;17.30;99.90
54260;DHT22;40172;53.022;7.012;2022-10-24T13:00:28;17.30;99.90
54260;DHT22;40172;53.022;7.012;2022-10-24T13:03:04;17.20;99.90
54260;DHT22;40172;53.022;7.012;2022-10-24T13:05:59;17.10;99.90
54260;DHT22;40172;53.022;7.012;2022-10-24T13:20:16;16.80;99.90
54260;DHT22;40172;53.022;7.012;2022-10-24T13:22:43;16.70;99.90
54260;DHT22;40172;53.022;7.012;2022-10-24T13:25:36;16.60;99.90
54260;DHT22;40172;53.022;7.012;2022-10-24T13:38:45;16.50;99.90
54260;DHT22;40172;53.022;7.012;2022-10-24T13:44:22;16.40;99.90
54260;DHT22;40172;53.022;7.012;2022-10-24T13:49:56;16.40;99.90
54260;DHT22;40172;53.022;7.012;2022-10-24T13:52:28;16.30;99.90
54260;DHT22;40172;53.022;7.012;2022-10-24T13:55:01;16.30;99.90
54260;DHT22;40172;53.022;7.012;2022-10-24T13:57:33;16.30;99.90
54260;DHT22;40172;53.022;7.012;2022-10-24T14:00:07;16.20;99.90
54260;DHT22;40172;53.022;7.012;2022-10-24T14:02:42;16.30;99.90
54260;DHT22;40172;53.022;7.012;2022-10-24T14:05:26;16.30;99.90
54260;DHT22;40172;53.022;7.012;2022-10-24T14:07:53;16.30;99.90
54260;DHT22;40172;53.022;7.012;2022-10-24T14:10:20;16.30;99.90
54260;DHT22;40172;53.022;7.012;2022-10-24T14:12:46;16.30;99.90
54260;DHT22;40172;53.022;7.012;2022-10-24T14:15:21;16.20;99.90
54260;DHT22;40172;53.022;7.012;2022-10-24T14:18:02;16.20;99.90
54260;DHT22;40172;53.022;7.012;2022-10-24T14:20:35;16.20;99.90
54260;DHT22;40172;53.022;7.012;2022-10-24T14:23:01;16.30;99.90
54260;DHT22;40172;53.022;7.012;2022-10-24T14:25:37;16.10;99.90
54260;DHT22;40172;53.022;7.012;2022-10-24T14:28:13;16.00;99.90
54260;DHT22;40172;53.022;7.012;2022-10-24T14:30:41;16.00;99.90
54260;DHT22;40172;53.022;7.012;2022-10-24T14:33:25;16.10;99.90
54260;DHT22;40172;53.022;7.012;2022-10-24T14:35:52;16.20;99.90
54260;DHT22;40172;53.022;7.012;2022-10-24T14:38:19;16.20;99.90
54260;DHT22;40172;53.022;7.012;2022-10-24T14:40:47;16.10;99.90
54260;DHT22;40172;53.022;7.012;2022-10-24T14:43:16;16.10;99.90
54260;DHT22;40172;53.022;7.012;2022-10-24T14:46:01;16.10;99.90
54260;DHT22;40172;53.022;7.012;2022-10-24T14:48:29;16.00;99.90
54260;DHT22;40172;53.022;7.012;2022-10-24T14:51:04;15.90;99.90
54260;DHT22;40172;53.022;7.012;2022-10-24T14:53:34;15.70;99.90
54260;DHT22;40172;53.022;7.012;2022-10-24T14:56:01;15.70;99.90
54260;DHT22;40172;53.022;7.012;2022-10-24T14:58:29;15.60;99.90
54260;DHT22;40172;53.022;7.012;2022-10-24T15:00:56;15.60;99.90
54260;DHT22;40172;53.022;7.012;2022-10-24T15:03:27;15.60;99.90
54260;DHT22;40172;53.022;7.012;2022-10-24T15:06:05;15.50;99.90
54260;DHT22;40172;53.022;7.012;2022-10-24T15:08:39;15.40;99.90
54260;DHT22;40172;53.022;7.012;2022-10-24T15:11:19;15.40;99.90
54260;DHT22;40172;53.022;7.012;2022-10-24T15:13:52;15.40;99.90
54260;DHT22;40172;53.022;7.012;2022-10-24T15:16:53;15.40;99.90
54260;DHT22;40172;53.022;7.012;2022-10-24T15:19:14;15.40;99.90
54260;DHT22;40172;53.022;7.012;2022-10-24T15:21:43;15.30;99.90
54260;DHT22;40172;53.022;7.012;2022-10-24T15:24:19;15.30;99.90
54260;DHT22;40172;53.022;7.012;2022-10-24T15:26:46;15.30;99.90
54260;DHT22;40172;53.022;7.012;2022-10-24T15:31:42;15.30;99.90
54260;DHT22;40172;53.022;7.012;2022-10-24T15:34:16;15.30;99.90
54260;DHT22;40172;53.022;7.012;2022-10-24T15:36:43;15.30;99.90
54260;DHT22;40172;53.022;7.012;2022-10-24T15:41:36;15.20;99.90
54260;DHT22;40172;53.022;7.012;2022-10-24T15:44:05;15.10;99.90
54260;DHT22;40172;53.022;7.012;2022-10-24T15:46:30;15.10;99.90
54260;DHT22;40172;53.022;7.012;2022-10-24T15:48:56;16.00;99.90
54260;DHT22;40172;53.022;7.012;2022-10-24T15:51:23;14.90;99.90
54260;DHT22;40172;53.022;7.012;2022-10-24T15:53:49;14.80;99.90
54260;DHT22;40172;53.022;7.012;2022-10-24T15:56:16;14.80;99.90
54260;DHT22;40172;53.022;7.012;2022-10-24T15:58:41;14.70;99.90
54260;DHT22;40172;53.022;7.012;2022-10-24T16:01:20;14.70;99.90
54260;DHT22;40172;53.022;7.012;2022-10-24T16:03:46;14.70;99.90
54260;DHT22;40172;53.022;7.012;2022-10-24T16:06:11;14.60;99.90
54260;DHT22;40172;53.022;7.012;2022-10-24T16:08:37;14.50;99.90
54260;DHT22;40172;53.022;7.012;2022-10-24T16:11:03;14.50;99.90
54260;DHT22;40172;53.022;7.012;2022-10-24T16:13:28;14.40;99.90
54260;DHT22;40172;53.022;7.012;2022-10-24T16:15:54;14.40;99.90
54260;DHT22;40172;53.022;7.012;2022-10-24T16:18:20;14.30;99.90
54260;DHT22;40172;53.022;7.012;2022-10-24T16:20:46;14.20;99.90
54260;DHT22;40172;53.022;7.012;2022-10-24T16:23:14;14.10;99.90
54260;DHT22;40172;53.022;7.012;2022-10-24T16:25:40;14.20;99.90
54260;DHT22;40172;53.022;7.012;2022-10-24T16:28:06;14.10;99.90
54260;DHT22;40172;53.022;7.012;2022-10-24T16:30:35;14.10;99.90
54260;DHT22;40172;53.022;7.012;2022-10-24T16:33:01;14.00;99.90
54260;DHT22;40172;53.022;7.012;2022-10-24T16:35:30;14.00;99.90
54260;DHT22;40172;53.022;7.012;2022-10-24T16:37:58;14.00;99.90
54260;DHT22;40172;53.022;7.012;2022-10-24T16:40:25;13.90;99.90
54260;DHT22;40172;53.022;7.012;2022-10-24T16:42:53;13.90;99.90
54260;DHT22;40172;53.022;7.012;2022-10-24T16:45:19;13.90;99.90
54260;DHT22;40172;53.022;7.012;2022-10-24T16:47:45;13.80;99.90
54260;DHT22;40172;53.022;7.012;2022-10-24T16:50:22;13.90;99.90
54260;DHT22;40172;53.022;7.012;2022-10-24T16:53:03;13.80;99.90
54260;DHT22;40172;53.022;7.012;2022-10-24T16:55:30;13.80;99.90
54260;DHT22;40172;53.022;7.012;2022-10-24T16:57:56;13.80;99.90
54260;DHT22;40172;53.022;7.012;2022-10-24T17:00:22;13.70;99.90
54260;DHT22;40172;53.022;7.012;2022-10-24T17:02:51;13.70;99.90
54260;DHT22;40172;53.022;7.012;2022-10-24T17:05:19;13.70;99.90
54260;DHT22;40172;53.022;7.012;2022-10-24T17:07:45;13.60;99.90
54260;DHT22;40172;53.022;7.012;2022-10-24T17:10:12;13.60;99.90
54260;DHT22;40172;53.022;7.012;2022-10-24T17:12:40;13.70;99.90
54260;DHT22;40172;53.022;7.012;2022-10-24T17:15:06;13.60;99.90
54260;DHT22;40172;53.022;7.012;2022-10-24T17:17:32;13.70;99.90
54260;DHT22;40172;53.022;7.012;2022-10-24T17:19:59;13.60;99.90
54260;DHT22;40172;53.022;7.012;2022-10-24T17:22:25;13.60;99.90
54260;DHT22;40172;53.022;7.012;2022-10-24T17:24:51;13.60;99.90
54260;DHT22;40172;53.022;7.012;2022-10-24T17:27:17;13.60;99.90
54260;DHT22;40172;53.022;7.012;2022-10-24T17:29:42;13.60;99.90
54260;DHT22;40172;53.022;7.012;2022-10-24T17:32:10;13.70;99.90
54260;DHT22;40172;53.022;7.012;2022-10-24T17:34:36;13.70;99.90
54260;DHT22;40172;53.022;7.012;2022-10-24T17:37:06;13.70;99.90
54260;DHT22;40172;53.022;7.012;2022-10-24T17:39:50;13.70;99.90
54260;DHT22;40172;53.022;7.012;2022-10-24T17:42:17;13.60;99.90
54260;DHT22;40172;53.022;7.012;2022-10-24T17:44:44;13.60;99.90
54260;DHT22;40172;53.022;7.012;2022-10-24T17:47:10;13.60;99.90
54260;DHT22;40172;53.022;7.012;2022-10-24T17:49:36;13.50;99.90
54260;DHT22;40172;53.022;7.012;2022-10-24T17:52:02;13.40;99.90
54260;DHT22;40172;53.022;7.012;2022-10-24T17:54:28;13.30;99.90
54260;DHT22;40172;53.022;7.012;2022-10-24T17:56:53;13.30;99.90
54260;DHT22;40172;53.022;7.012;2022-10-24T17:59:19;13.30;99.90
54260;DHT22;40172;53.022;7.012;2022-10-24T18:01:46;13.30;99.90